Time;durP1;ratioP1;P1;durP2;ratioP2;P2;SDS_P1;SDS_P2;PMS_P1;PMS_P2;Temp;Humidity;BMP_temperature;BMP_pressure;BME280_temperature;BME280_humidity;BME280_pressure;Samples;Min_cycle;Max_cycle;Signal;HPM_P1;HPM_P2
2022/07/16 00:03:45;;;;;;;18.30;3.53;;;;;;;25.03;37.65;98869.63;5093610;28;20031;-48
2022/07/16 00:06:14;;;;;;;18.15;3.00;;;;;;;24.91;38.38;98866.56;5093615;28;20389;-49
2022/07/16 00:08:40;;;;;;;10.30;3.00;;;;;;;24.83;38.32;98859.97;5093511;28;20488;-49
2022/07/16 00:11:05;;;;;;;13.80;4.15;;;;;;;24.80;38.48;98857.06;5093411;28;20107;-49
2022/07/16 00:13:31;;;;;;;15.20;4.18;;;;;;;24.89;38.61;98868.72;5093568;28;20222;-49
2022/07/16 00:15:57;;;;;;;7.13;3.20;;;;;;;24.95;38.57;98866.78;5075171;28;20432;-49
2022/07/16 00:21:07;;;;;;;13.63;3.42;;;;;;;24.84;38.57;98858.88;5093360;28;20035;-48
2022/07/16 00:23:32;;;;;;;11.45;3.42;;;;;;;24.77;38.93;98863.81;5093307;28;20024;-49
2022/07/16 00:25:58;;;;;;;14.32;3.33;;;;;;;24.77;38.93;98865.69;5093184;28;20024;-49
2022/07/16 00:28:27;;;;;;;20.23;3.47;;;;;;;24.68;39.05;98863.66;5093149;28;20481;-49
2022/07/16 00:30:52;;;;;;;10.73;3.08;;;;;;;24.65;38.93;98863.41;5093105;28;20028;-49
2022/07/16 00:33:18;;;;;;;5.88;2.50;;;;;;;24.72;39.19;98867.34;5093035;28;20069;-50
2022/07/16 00:35:44;;;;;;;10.18;3.40;;;;;;;24.80;38.58;98860.53;5092794;28;20028;-47
2022/07/16 00:38:10;;;;;;;8.38;2.60;;;;;;;24.76;38.71;98858.72;5093023;28;20108;-49
2022/07/16 00:40:35;;;;;;;14.00;3.50;;;;;;;24.74;38.94;98850.97;5092826;28;20021;-50
2022/07/16 00:43:01;;;;;;;9.63;3.28;;;;;;;24.84;38.58;98850.81;5074608;28;20157;-49
2022/07/16 00:45:27;;;;;;;11.98;2.72;;;;;;;24.98;37.87;98858.94;5058015;28;20196;-49
2022/07/16 00:47:53;;;;;;;10.25;2.92;;;;;;;24.98;37.76;98855.47;5074814;28;20020;-50
2022/07/16 00:50:19;;;;;;;7.45;3.38;;;;;;;24.92;37.69;98849.38;5092715;28;20224;-50
2022/07/16 00:52:44;;;;;;;9.30;2.65;;;;;;;24.72;37.72;98853.94;5092740;28;20026;-49
2022/07/16 00:55:10;;;;;;;13.25;2.63;;;;;;;24.51;37.99;98858.78;5092640;28;20519;-49
2022/07/16 00:57:36;;;;;;;10.45;3.03;;;;;;;24.36;38.44;98856.25;5092599;28;20026;-50
2022/07/16 01:00:05;;;;;;;9.80;2.53;;;;;;;24.34;38.26;98850.38;5092504;28;20027;-48
2022/07/16 01:02:33;;;;;;;12.38;3.13;;;;;;;24.34;38.45;98861.09;5092398;28;20028;-49
2022/07/16 01:04:59;;;;;;;9.52;3.35;;;;;;;24.47;38.10;98857.72;5092432;28;20051;-49
2022/07/16 01:07:25;;;;;;;14.00;3.22;;;;;;;24.64;37.64;98856.47;5074206;28;20374;-49
2022/07/16 01:09:52;;;;;;;9.73;3.22;;;;;;;24.64;37.14;98859.16;5074258;28;20035;-49
2022/07/16 01:12:18;;;;;;;10.00;3.40;;;;;;;24.54;37.38;98860.09;5092354;28;20496;-49
2022/07/16 01:14:45;;;;;;;22.35;3.38;;;;;;;24.46;37.40;98864.16;5074459;28;20400;-49
2022/07/16 01:17:11;;;;;;;11.90;3.17;;;;;;;24.36;37.18;98866.19;5092331;28;20129;-49
2022/07/16 01:19:36;;;;;;;26.88;3.40;;;;;;;24.27;37.45;98863.34;5091982;28;20044;-49
2022/07/16 01:22:03;;;;;;;16.38;4.10;;;;;;;24.25;37.07;98862.84;5092210;28;20024;-49
2022/07/16 01:24:28;;;;;;;17.85;3.28;;;;;;;24.19;36.88;98863.97;5092021;28;20028;-49
2022/07/16 01:26:54;;;;;;;21.27;3.22;;;;;;;24.07;37.01;98862.47;5073978;28;20031;-49
2022/07/16 01:29:20;;;;;;;20.15;3.40;;;;;;;24.04;36.93;98865.72;5073934;28;20032;-49
2022/07/16 01:31:45;;;;;;;12.82;3.78;;;;;;;24.09;36.55;98863.00;5073883;28;20027;-49
2022/07/16 01:34:26;;;;;;;12.93;2.85;;;;;;;24.00;36.37;98856.66;5074174;28;20032;-49
2022/07/16 01:36:57;;;;;;;7.55;2.80;;;;;;;24.05;36.28;98867.31;5073855;28;20032;-49
2022/07/16 01:39:24;;;;;;;18.65;2.92;;;;;;;24.03;36.37;98872.19;5091968;28;20035;-49
2022/07/16 01:41:55;;;;;;;15.60;3.53;;;;;;;24.04;36.52;98860.34;5092214;28;20105;-49
2022/07/16 01:44:26;;;;;;;12.63;2.42;;;;;;;24.06;36.14;98862.75;5091865;28;20020;-49
2022/07/16 01:46:52;;;;;;;11.73;2.58;;;;;;;24.02;36.00;98867.88;5091326;28;20024;-47
2022/07/16 01:49:18;;;;;;;10.48;2.00;;;;;;;23.98;35.73;98869.53;5091893;28;20032;-49
2022/07/16 01:51:44;;;;;;;7.93;2.40;;;;;;;23.98;35.70;98871.44;5091742;28;20027;-49
2022/07/16 01:54:09;;;;;;;22.58;4.05;;;;;;;23.89;35.56;98874.72;5091824;28;20119;-49
2022/07/16 01:56:36;;;;;;;8.27;2.85;;;;;;;23.85;35.34;98878.25;5073684;28;20419;-49
2022/07/16 01:59:02;;;;;;;11.90;2.80;;;;;;;23.79;35.58;98876.72;5073716;28;20028;-50
2022/07/16 02:01:27;;;;;;;11.57;2.97;;;;;;;23.74;35.72;98880.19;5073724;28;20020;-49
2022/07/16 02:03:53;;;;;;;8.05;2.30;;;;;;;23.72;35.13;98877.00;5091700;28;20046;-50
2022/07/16 02:06:19;;;;;;;13.50;2.72;;;;;;;23.72;35.10;98875.13;5073531;28;20028;-49
2022/07/16 02:08:45;;;;;;;11.00;2.72;;;;;;;23.67;35.20;98879.72;5091703;28;20069;-49
2022/07/16 02:11:10;;;;;;;10.25;2.92;;;;;;;23.77;35.41;98873.50;5091650;28;20055;-50
2022/07/16 02:13:36;;;;;;;8.88;2.35;;;;;;;23.81;34.71;98877.22;5091606;28;20063;-50
2022/07/16 02:16:02;;;;;;;13.73;2.55;;;;;;;23.88;34.69;98875.78;5091670;28;20103;-49
2022/07/16 02:18:28;;;;;;;8.07;2.17;;;;;;;23.92;34.49;98879.53;5073208;28;20493;-49
2022/07/16 02:20:54;;;;;;;17.73;2.35;;;;;;;23.81;34.22;98875.34;5091527;28;20032;-49
2022/07/16 02:23:19;;;;;;;11.20;2.10;;;;;;;23.70;34.34;98876.47;5091502;28;20528;-49
2022/07/16 02:25:45;;;;;;;10.07;2.40;;;;;;;23.63;34.51;98873.34;5091559;28;20025;-49
2022/07/16 02:28:11;;;;;;;16.13;2.97;;;;;;;23.58;34.85;98871.47;5091526;28;20020;-49
2022/07/16 02:30:43;;;;;;;5.35;1.75;;;;;;;23.58;34.39;98879.53;5091516;28;20027;-49
2022/07/16 02:33:10;;;;;;;14.02;2.42;;;;;;;23.48;34.54;98883.13;5073368;28;20024;-49
2022/07/16 02:35:37;;;;;;;8.38;2.22;;;;;;;23.32;34.52;98887.78;5073295;28;20032;-47
2022/07/16 02:38:05;;;;;;;10.43;2.65;;;;;;;23.27;34.78;98881.66;5091455;28;20020;-48
2022/07/16 02:40:33;;;;;;;14.95;2.38;;;;;;;23.22;34.89;98889.72;5091376;28;20031;-46
2022/07/16 02:43:00;;;;;;;15.73;2.35;;;;;;;23.13;34.69;98892.19;5091265;28;20027;-47
2022/07/16 02:45:26;;;;;;;8.30;1.65;;;;;;;23.06;34.73;98884.47;5091246;28;20026;-46
2022/07/16 02:47:52;;;;;;;7.00;1.98;;;;;;;22.99;34.61;98891.19;5073271;28;20111;-47
2022/07/16 02:50:19;;;;;;;9.25;1.95;;;;;;;22.85;34.98;98882.97;5091314;28;20575;-47
2022/07/16 02:52:44;;;;;;;8.15;3.03;;;;;;;22.76;35.17;98884.59;5091262;28;20024;-47
2022/07/16 02:55:10;;;;;;;9.70;2.50;;;;;;;22.71;35.29;98891.56;5091275;28;20107;-47
2022/07/16 02:57:36;;;;;;;8.98;2.47;;;;;;;22.65;35.36;98894.56;5091516;28;20444;-47
2022/07/16 03:00:07;;;;;;;5.63;2.05;;;;;;;22.62;35.76;98892.44;5075906;28;20035;-47
2022/07/16 03:02:33;;;;;;;9.70;2.08;;;;;;;22.56;35.78;98896.19;5095034;28;20400;-47
2022/07/16 03:04:59;;;;;;;8.68;2.58;;;;;;;22.52;35.82;98901.31;5094704;28;20016;-47
2022/07/16 03:07:24;;;;;;;11.85;2.70;;;;;;;22.47;36.04;98898.66;5094701;28;20077;-47
2022/07/16 03:09:50;;;;;;;5.28;2.17;;;;;;;22.46;35.70;98897.84;5094674;28;20481;-47
2022/07/16 03:12:16;;;;;;;6.80;2.17;;;;;;;22.50;35.76;98896.22;5094826;28;20555;-47
2022/07/16 03:14:42;;;;;;;7.53;1.95;;;;;;;22.47;35.92;98896.75;5094554;28;20476;-47
2022/07/16 03:17:07;;;;;;;8.05;2.50;;;;;;;22.45;35.79;98896.22;5094472;28;20020;-47
2022/07/16 03:19:33;;;;;;;5.30;2.25;;;;;;;22.43;35.65;98898.38;5060841;28;20117;-47
2022/07/16 03:21:58;;;;;;;8.02;1.92;;;;;;;22.40;35.70;98901.63;5074207;28;20057;-46
2022/07/16 03:24:24;;;;;;;17.23;2.90;;;;;;;22.33;36.02;98901.91;5074057;28;20104;-47
2022/07/16 03:26:50;;;;;;;16.33;2.50;;;;;;;22.35;35.87;98898.94;5074076;28;20430;-48
2022/07/16 03:29:15;;;;;;;16.02;2.95;;;;;;;22.33;35.91;98901.09;5074114;28;20060;-48
2022/07/16 03:31:41;;;;;;;5.57;2.10;;;;;;;22.32;36.13;98900.31;5055978;28;20021;-47
2022/07/16 03:34:07;;;;;;;19.67;3.22;;;;;;;22.37;36.55;98899.47;5073986;28;20025;-48
2022/07/16 03:36:32;;;;;;;15.02;2.55;;;;;;;22.58;36.22;98899.41;5055912;28;20370;-47
2022/07/16 03:39:04;;;;;;;12.35;2.85;;;;;;;22.59;36.13;98903.69;5074125;28;20025;-47
2022/07/16 03:41:35;;;;;;;21.27;2.92;;;;;;;22.54;36.06;98902.63;5073827;28;20058;-47
2022/07/16 03:44:04;;;;;;;14.18;2.63;;;;;;;22.54;35.94;98907.97;5074127;28;20028;-47
2022/07/16 03:46:30;;;;;;;11.98;2.00;;;;;;;22.49;35.75;98905.31;5073702;28;20040;-47
2022/07/16 03:48:56;;;;;;;4.40;2.20;;;;;;;22.46;36.04;98900.53;5055736;28;20528;-48
2022/07/16 03:51:25;;;;;;;18.52;2.28;;;;;;;22.31;36.26;98904.03;5055635;28;20020;-48
2022/07/16 03:53:54;;;;;;;12.02;2.22;;;;;;;22.19;36.27;98910.72;5073588;28;20040;-47
2022/07/16 03:56:20;;;;;;;7.47;2.47;;;;;;;22.05;36.44;98900.59;5055529;28;20494;-47
2022/07/16 03:58:46;;;;;;;8.00;1.92;;;;;;;21.98;36.83;98909.97;5073563;28;20021;-47
2022/07/16 04:01:11;;;;;;;11.65;2.72;;;;;;;21.91;36.94;98918.25;5073364;28;20023;-47
2022/07/16 04:03:37;;;;;;;9.57;2.67;;;;;;;21.88;36.90;98911.59;5073402;28;20385;-47
2022/07/16 04:06:04;;;;;;;12.88;3.05;;;;;;;21.92;37.07;98914.53;5073319;28;20082;-48
2022/07/16 04:08:30;;;;;;;13.90;2.55;;;;;;;22.08;37.19;98904.63;5055331;28;20559;-47
2022/07/16 04:10:56;;;;;;;29.10;3.20;;;;;;;22.25;37.43;98912.34;5072841;28;20024;-48
2022/07/16 04:13:23;;;;;;;16.33;3.22;;;;;;;22.53;36.88;98919.75;5073230;28;20036;-47
2022/07/16 04:15:49;;;;;;;10.60;2.90;;;;;;;22.71;36.00;98912.97;5073159;28;20021;-47
2022/07/16 04:18:15;;;;;;;10.05;2.20;;;;;;;22.70;35.66;98921.31;5050802;28;20081;-48
2022/07/16 04:20:41;;;;;;;25.48;3.80;;;;;;;22.46;36.33;98923.81;5053083;28;20029;-47
2022/07/16 04:23:07;;;;;;;13.32;2.67;;;;;;;22.33;36.37;98920.63;5035056;28;20395;-47
2022/07/16 04:25:32;;;;;;;11.93;2.83;;;;;;;22.24;36.33;98916.09;5052965;28;20419;-46
2022/07/16 04:27:58;;;;;;;7.00;2.17;;;;;;;22.12;36.51;98921.72;5052905;28;20025;-47
2022/07/16 04:30:24;;;;;;;11.65;2.78;;;;;;;22.07;36.96;98924.38;5052837;28;20025;-47
2022/07/16 04:32:50;;;;;;;7.75;2.83;;;;;;;22.09;36.98;98925.72;5052926;28;20770;-47
2022/07/16 04:35:16;;;;;;;18.25;2.85;;;;;;;22.34;36.94;98924.91;5052887;28;20021;-47
2022/07/16 04:37:43;;;;;;;13.52;2.85;;;;;;;22.80;36.61;98920.44;5052874;28;20020;-47
2022/07/16 04:40:12;;;;;;;16.38;2.83;;;;;;;23.67;35.09;98920.72;5052719;28;20139;-47
2022/07/16 04:42:42;;;;;;;17.67;3.15;;;;;;;24.58;33.68;98916.66;5052687;28;20036;-47
2022/07/16 04:45:09;;;;;;;11.60;2.70;;;;;;;25.22;32.16;98920.66;5052535;28;20040;-48
2022/07/16 04:47:35;;;;;;;13.85;3.47;;;;;;;25.80;31.37;98924.06;5052496;28;20032;-47
2022/07/16 04:50:01;;;;;;;11.93;2.33;;;;;;;26.15;30.40;98925.34;5052797;28;20021;-47
2022/07/16 04:52:27;;;;;;;9.93;2.72;;;;;;;26.38;30.10;98925.47;5034604;28;20021;-48
2022/07/16 04:54:53;;;;;;;7.28;1.98;;;;;;;26.61;29.67;98918.31;5052463;28;20021;-48
2022/07/16 04:57:18;;;;;;;9.93;2.20;;;;;;;26.68;29.55;98926.78;5034784;28;20094;-48
2022/07/16 04:59:44;;;;;;;9.65;1.90;;;;;;;26.59;29.52;98936.66;5052600;28;20028;-48
2022/07/16 05:04:54;;;;;;;11.30;2.70;;;;;;;26.61;30.05;98937.94;5052257;28;20029;-47
2022/07/16 05:07:20;;;;;;;6.38;1.95;;;;;;;27.15;28.81;98929.28;5052122;28;20490;-47
2022/07/16 05:09:45;;;;;;;6.78;1.95;;;;;;;27.68;28.21;98926.69;5052468;28;20074;-49
2022/07/16 05:12:11;;;;;;;6.25;1.80;;;;;;;28.29;26.58;98923.53;5052097;28;20108;-50
2022/07/16 05:14:37;;;;;;;6.07;1.95;;;;;;;28.70;26.10;98922.44;5052164;28;20048;-49
2022/07/16 05:17:03;;;;;;;9.93;1.90;;;;;;;28.55;26.70;98930.97;5052067;28;20379;-49
2022/07/16 05:19:29;;;;;;;8.38;1.92;;;;;;;28.63;26.39;98936.41;5066019;28;20516;-49
2022/07/16 05:21:54;;;;;;;5.55;1.42;;;;;;;29.15;25.15;98930.28;5071280;28;20631;-49
2022/07/16 05:24:20;;;;;;;7.47;1.63;;;;;;;29.60;24.72;98931.84;5053876;28;20060;-49
2022/07/16 05:26:46;;;;;;;17.95;2.70;;;;;;;29.73;24.58;98938.25;5071954;28;20095;-49
2022/07/16 05:29:11;;;;;;;6.05;1.80;;;;;;;29.39;24.91;98942.53;5053872;28;20058;-47
2022/07/16 05:31:37;;;;;;;8.05;1.73;;;;;;;29.74;24.35;98939.81;5053843;28;20063;-48
2022/07/16 05:34:03;;;;;;;16.05;2.10;;;;;;;30.34;23.95;98949.69;5071816;28;20454;-47
2022/07/16 05:36:28;;;;;;;8.88;2.08;;;;;;;30.73;23.48;98944.25;5071826;28;20390;-48
2022/07/16 05:38:54;;;;;;;8.80;1.70;;;;;;;31.11;22.93;98949.59;5071815;28;20482;-48
2022/07/16 05:41:20;;;;;;;9.20;1.58;;;;;;;31.64;22.25;98945.34;5071585;28;20037;-48
2022/07/16 05:43:45;;;;;;;8.52;2.08;;;;;;;32.42;21.39;98951.06;5053703;28;20024;-49
2022/07/16 05:46:11;;;;;;;35.97;4.95;;;;;;;32.57;20.98;98952.31;5071668;28;20146;-49
2022/07/16 05:48:37;;;;;;;40.60;4.22;;;;;;;32.57;20.65;98944.16;5071673;28;20048;-49
2022/07/16 05:51:02;;;;;;;105.20;8.02;;;;;;;32.77;20.92;98943.22;5071582;28;20091;-48
2022/07/16 05:53:28;;;;;;;58.22;5.70;;;;;;;32.90;20.89;98948.63;5071638;28;20028;-49
2022/07/16 05:55:54;;;;;;;61.40;5.60;;;;;;;33.06;21.08;98948.72;5071598;28;20017;-49
2022/07/16 05:58:19;;;;;;;11.93;2.25;;;;;;;33.28;20.61;98953.66;5053522;28;20055;-50
2022/07/16 06:00:45;;;;;;;19.27;2.03;;;;;;;33.31;20.29;98954.94;5053662;28;20032;-50
2022/07/16 06:03:10;;;;;;;19.52;2.53;;;;;;;33.41;20.42;98960.66;5071511;28;20024;-48
2022/07/16 06:05:36;;;;;;;9.38;2.05;;;;;;;33.66;19.46;98960.56;5053507;28;20020;-50
2022/07/16 06:08:02;;;;;;;11.57;1.73;;;;;;;34.14;19.48;98956.00;5071488;28;20036;-50
2022/07/16 06:10:31;;;;;;;21.75;2.55;;;;;;;34.77;18.54;98965.28;5071551;28;20052;-49
2022/07/16 06:12:57;;;;;;;13.75;2.15;;;;;;;35.08;19.07;98958.97;5071519;28;20032;-49
2022/07/16 06:15:23;;;;;;;7.30;1.85;;;;;;;35.08;18.58;98969.88;5071401;28;20021;-50
2022/07/16 06:17:49;;;;;;;7.32;1.90;;;;;;;35.13;18.17;98961.38;5071218;28;20027;-50
2022/07/16 06:20:14;;;;;;;5.97;1.83;;;;;;;35.10;18.25;98961.34;5071306;28;20047;-48
2022/07/16 06:22:40;;;;;;;11.05;2.13;;;;;;;35.12;18.59;98965.28;5071363;28;20390;-48
2022/07/16 06:25:06;;;;;;;9.35;1.70;;;;;;;35.41;18.32;98957.69;5071409;28;20040;-48
2022/07/16 06:27:32;;;;;;;6.55;1.60;;;;;;;35.78;18.16;98963.50;5071337;28;20047;-50
2022/07/16 06:30:05;;;;;;;8.23;1.70;;;;;;;36.22;17.47;98967.00;5071300;28;20533;-50
2022/07/16 06:32:31;;;;;;;9.18;1.80;;;;;;;35.93;17.67;98964.53;5053875;28;20037;-50
2022/07/16 06:34:57;;;;;;;16.73;1.90;;;;;;;36.19;17.42;98971.25;5075015;28;20031;-49
2022/07/16 06:37:22;;;;;;;10.55;1.90;;;;;;;36.44;17.17;98968.91;5074987;28;20444;-50
2022/07/16 06:39:48;;;;;;;13.93;1.83;;;;;;;36.45;17.53;98975.19;5074972;28;20036;-50
2022/07/16 06:42:13;;;;;;;9.60;2.15;;;;;;;36.33;17.65;98976.94;5057000;28;20016;-50
2022/07/16 06:44:40;;;;;;;6.95;1.83;;;;;;;36.74;17.27;98968.97;5074836;28;20021;-50
2022/07/16 06:47:06;;;;;;;8.35;2.22;;;;;;;36.83;16.96;98981.63;5074812;28;20017;-51
2022/07/16 06:49:32;;;;;;;8.23;1.50;;;;;;;36.70;17.18;98970.88;5056857;28;20103;-50
2022/07/16 06:51:58;;;;;;;8.82;1.70;;;;;;;36.81;17.20;98978.47;5056790;28;20021;-50
2022/07/16 06:54:23;;;;;;;2.70;1.60;;;;;;;37.17;16.75;98977.81;5074713;28;20072;-50
2022/07/16 06:56:49;;;;;;;10.32;1.98;;;;;;;37.49;16.65;98980.16;5074615;28;20490;-50
2022/07/16 06:59:15;;;;;;;10.70;1.98;;;;;;;37.67;16.10;98971.34;5074593;28;20485;-50
2022/07/16 07:01:40;;;;;;;21.52;2.60;;;;;;;37.80;15.72;98978.16;5074560;28;20021;-49
2022/07/16 07:04:06;;;;;;;33.95;6.85;;;;;;;37.17;16.43;98983.28;5074400;28;20040;-49
2022/07/16 07:06:32;;;;;;;15.25;2.60;;;;;;;38.00;15.91;98984.22;5074475;28;20029;-50
2022/07/16 07:08:57;;;;;;;20.92;3.08;;;;;;;38.75;15.38;98976.59;5074409;28;20032;-50
2022/07/16 07:11:23;;;;;;;8.45;2.05;;;;;;;38.59;15.77;98986.28;5074361;28;20413;-50
2022/07/16 07:13:49;;;;;;;29.90;2.58;;;;;;;38.81;15.25;98982.50;5056380;28;20493;-51
2022/07/16 07:16:18;;;;;;;18.55;1.98;;;;;;;39.17;15.38;98990.19;5074313;28;20543;-50
2022/07/16 07:18:44;;;;;;;12.18;1.83;;;;;;;39.36;15.41;98984.34;5056020;28;20048;-49
2022/07/16 07:21:10;;;;;;;7.25;1.88;;;;;;;39.39;15.04;98985.56;5056220;28;20024;-50
2022/07/16 07:23:36;;;;;;;5.75;1.38;;;;;;;39.43;14.99;98981.66;5074379;28;20397;-50
2022/07/16 07:26:02;;;;;;;108.65;99.97;;;;;;;39.56;14.75;98984.84;5074060;28;20028;-50
2022/07/16 07:28:28;;;;;;;20.05;10.70;;;;;;;39.23;15.07;98994.13;5074113;28;20028;-49
2022/07/16 07:30:56;;;;;;;28.27;4.75;;;;;;;38.73;15.13;98992.66;5073970;28;20021;-49
2022/07/16 07:33:23;;;;;;;28.00;3.55;;;;;;;38.46;15.47;98985.78;5073898;28;20025;-49
2022/07/16 07:35:49;;;;;;;27.75;3.80;;;;;;;38.14;16.32;98989.06;5055940;28;20024;-50
2022/07/16 07:38:15;;;;;;;13.88;2.35;;;;;;;37.78;16.13;98988.69;5055844;28;20036;-48
2022/07/16 07:40:41;;;;;;;13.93;2.55;;;;;;;37.35;16.87;98985.47;5073922;28;20035;-48
2022/07/16 07:43:06;;;;;;;15.23;2.40;;;;;;;37.01;17.30;98992.78;5073932;28;20041;-48
2022/07/16 07:45:32;;;;;;;14.57;3.53;;;;;;;36.65;17.39;98998.56;5054971;28;20082;-50
2022/07/16 07:47:58;;;;;;;19.65;2.70;;;;;;;36.78;17.24;98989.00;5073702;28;20024;-50
2022/07/16 07:50:24;;;;;;;55.90;5.72;;;;;;;37.04;17.23;98984.63;5073651;28;20371;-51
2022/07/16 07:52:49;;;;;;;91.15;7.00;;;;;;;37.32;17.36;98980.72;5073670;28;20051;-51
2022/07/16 07:55:15;;;;;;;28.60;3.47;;;;;;;37.65;16.93;98984.63;5073600;28;20024;-50
2022/07/16 07:57:42;;;;;;;41.75;4.80;;;;;;;38.19;16.08;98983.22;5039157;28;20074;-51
2022/07/16 08:00:09;;;;;;;27.05;3.00;;;;;;;38.73;15.73;98980.91;5073374;28;20051;-50
2022/07/16 08:02:35;;;;;;;38.28;4.13;;;;;;;39.08;15.72;98983.09;5073491;28;20100;-49
2022/07/16 08:05:01;;;;;;;35.47;3.42;;;;;;;38.56;15.67;98980.41;5055338;28;20020;-50
2022/07/16 08:07:27;;;;;;;16.35;2.67;;;;;;;39.09;15.73;98992.88;5073330;28;20076;-49
2022/07/16 08:09:53;;;;;;;19.02;3.47;;;;;;;39.80;15.64;98994.31;5073349;28;20572;-48
2022/07/16 08:12:18;;;;;;;26.48;3.00;;;;;;;40.12;15.15;98990.84;5073198;28;20047;-49
2022/07/16 08:14:44;;;;;;;24.17;4.28;;;;;;;40.38;14.55;98988.91;5073141;28;20020;-48
2022/07/16 08:17:13;;;;;;;16.38;2.92;;;;;;;40.46;14.44;98990.47;5073143;28;20029;-50
2022/07/16 08:19:38;;;;;;;9.45;1.98;;;;;;;40.84;14.35;98988.09;5039426;28;20053;-50
2022/07/16 08:22:04;;;;;;;23.15;6.28;;;;;;;40.80;14.53;98988.09;5053047;28;20025;-50
2022/07/16 08:27:14;;;;;;;20.75;2.70;;;;;;;41.72;13.79;98985.38;5053314;28;20520;-50
2022/07/16 08:29:40;;;;;;;15.05;3.72;;;;;;;41.68;13.83;98990.13;5052966;28;20116;-49
2022/07/16 08:32:06;;;;;;;20.63;9.88;;;;;;;41.49;14.09;98977.59;5052917;28;20013;-49
2022/07/16 08:34:32;;;;;;;9.63;2.50;;;;;;;41.69;13.96;98978.69;5035015;28;20411;-49
2022/07/16 08:36:58;;;;;;;11.27;2.28;;;;;;;42.24;13.52;98979.91;5052716;28;20029;-50
2022/07/16 08:39:23;;;;;;;11.93;2.90;;;;;;;42.46;13.33;98974.19;5052689;28;20033;-48
2022/07/16 08:41:50;;;;;;;12.15;2.17;;;;;;;42.88;13.28;98974.97;5052710;28;20410;-47
2022/07/16 08:44:16;;;;;;;12.40;2.08;;;;;;;43.23;12.55;98968.22;5034664;28;20025;-50
2022/07/16 08:46:42;;;;;;;19.92;3.28;;;;;;;43.61;12.23;98970.88;5034679;28;20040;-49
2022/07/16 08:49:08;;;;;;;19.73;2.88;;;;;;;43.72;12.39;98979.03;5052817;28;20426;-48
2022/07/16 08:51:37;;;;;;;10.55;2.30;;;;;;;43.49;12.43;98965.94;5034559;28;20029;-49
2022/07/16 08:54:20;;;;;;;15.65;2.58;;;;;;;43.41;13.08;98968.00;5052476;28;20072;-47
2022/07/16 08:56:50;;;;;;;19.38;3.38;;;;;;;43.47;12.66;98968.34;5052417;28;20033;-48
2022/07/16 08:59:16;;;;;;;22.17;2.67;;;;;;;43.44;12.76;98969.94;5052388;28;20033;-47
2022/07/16 09:01:42;;;;;;;8.43;2.08;;;;;;;43.35;12.95;98969.69;5052328;28;20071;-48
2022/07/16 09:04:08;;;;;;;8.98;2.03;;;;;;;43.06;13.14;98972.75;5052238;28;20033;-48
2022/07/16 09:06:34;;;;;;;5.55;1.70;;;;;;;42.91;13.35;98968.63;5052273;28;20025;-48
2022/07/16 09:09:00;;;;;;;9.18;1.88;;;;;;;42.83;13.33;98961.59;5052164;28;20037;-49
2022/07/16 09:11:31;;;;;;;8.15;1.80;;;;;;;43.33;12.59;98969.31;5034294;28;20032;-48
2022/07/16 09:14:04;;;;;;;11.60;2.55;;;;;;;43.53;12.93;98972.19;5034337;28;20024;-47
2022/07/16 09:16:41;;;;;;;16.13;2.67;;;;;;;43.54;12.73;98965.44;5052677;28;20131;-50
2022/07/16 09:19:28;;;;;;;23.63;2.55;;;;;;;43.94;12.99;98968.44;5063117;28;20075;-48
2022/07/16 09:22:02;;;;;;;16.70;2.35;;;;;;;44.23;12.55;98968.78;5054027;28;20104;-49
2022/07/16 09:24:48;;;;;;;10.27;2.17;;;;;;;44.17;12.35;98966.88;5053966;28;20086;-49
2022/07/16 09:27:19;;;;;;;59.15;4.97;;;;;;;44.30;12.66;98959.56;5071997;28;20048;-50
2022/07/16 09:29:46;;;;;;;39.63;3.85;;;;;;;44.07;12.27;98963.91;5072042;28;20016;-48
2022/07/16 09:32:27;;;;;;;24.27;2.78;;;;;;;44.00;12.46;98960.44;5071885;28;20037;-48
2022/07/16 09:35:13;;;;;;;30.10;3.85;;;;;;;44.19;12.27;98959.75;5071889;28;20067;-50
2022/07/16 09:37:59;;;;;;;22.98;2.65;;;;;;;44.17;12.24;98966.88;5071834;28;20429;-49
2022/07/16 09:40:33;;;;;;;17.83;2.13;;;;;;;44.32;12.02;98957.16;5071791;28;20029;-48
2022/07/16 09:43:01;;;;;;;8.23;1.85;;;;;;;43.86;13.04;98959.47;5072072;28;20033;-49
2022/07/16 09:45:27;;;;;;;11.60;2.30;;;;;;;44.33;12.50;98957.91;5071696;28;20052;-48
2022/07/16 09:47:56;;;;;;;20.90;2.88;;;;;;;44.39;12.16;98953.47;5053671;28;20028;-48
2022/07/16 09:50:22;;;;;;;18.50;2.40;;;;;;;44.41;12.20;98953.81;5071592;28;20024;-49
2022/07/16 09:52:48;;;;;;;9.25;2.08;;;;;;;44.34;12.26;98953.97;5071759;28;20548;-49
2022/07/16 09:55:13;;;;;;;18.80;2.53;;;;;;;44.02;12.41;98953.28;5071625;28;20032;-49
2022/07/16 09:57:42;;;;;;;21.33;2.80;;;;;;;44.08;13.06;98957.16;5071667;28;20031;-48
2022/07/16 10:00:08;;;;;;;18.30;2.65;;;;;;;43.47;12.88;98949.75;5071622;28;20017;-48
2022/07/16 10:02:35;;;;;;;4.88;1.60;;;;;;;43.41;12.91;98948.66;5071560;28;20040;-47
2022/07/16 10:05:01;;;;;;;13.13;2.03;;;;;;;43.31;12.77;98952.38;5053421;28;20398;-48
2022/07/16 10:07:27;;;;;;;10.65;2.05;;;;;;;43.26;12.79;98944.50;5071957;28;20039;-48
2022/07/16 10:09:52;;;;;;;8.75;1.98;;;;;;;43.39;13.39;98937.25;5057796;28;20390;-48
2022/07/16 10:12:20;;;;;;;8.40;2.08;;;;;;;43.24;13.08;98941.38;5057522;28;20025;-49
2022/07/16 10:14:49;;;;;;;12.23;2.33;;;;;;;43.14;12.75;98942.28;5075563;28;20024;-48
2022/07/16 10:17:15;;;;;;;9.07;2.05;;;;;;;43.08;13.00;98936.44;5057445;28;20115;-47
2022/07/16 10:19:42;;;;;;;6.55;1.63;;;;;;;42.82;12.73;98938.72;5075282;28;20511;-50
2022/07/16 10:22:27;;;;;;;11.80;2.72;;;;;;;42.93;12.89;98941.38;5057357;28;20037;-49
2022/07/16 10:24:55;;;;;;;7.78;1.88;;;;;;;42.68;13.32;98942.44;5075315;28;20126;-48
2022/07/16 10:27:35;;;;;;;9.65;1.70;;;;;;;42.72;13.07;98936.06;5075262;28;20362;-50
2022/07/16 10:30:29;;;;;;;2.10;1.33;;;;;;;42.73;13.11;98932.91;5057543;28;20040;-49
2022/07/16 10:33:10;;;;;;;5.05;1.60;;;;;;;42.50;13.05;98944.56;5075281;28;20028;-48
2022/07/16 10:35:45;;;;;;;4.65;1.48;;;;;;;42.08;13.52;98941.81;5075155;28;20032;-46
2022/07/16 10:38:23;;;;;;;7.22;2.00;;;;;;;41.61;13.74;98940.56;5075012;28;20066;-48
2022/07/16 10:41:08;;;;;;;5.90;1.60;;;;;;;41.68;13.77;98940.53;5074958;28;20024;-48
2022/07/16 10:43:35;;;;;;;10.02;2.10;;;;;;;41.44;14.06;98940.25;5074782;28;20031;-47
2022/07/16 10:46:04;;;;;;;7.50;1.80;;;;;;;41.44;14.09;98936.72;5075394;28;20421;-48
2022/07/16 10:48:38;;;;;;;7.35;1.70;;;;;;;41.52;13.87;98938.25;5056931;28;20097;-48
2022/07/16 10:51:16;;;;;;;5.80;1.67;;;;;;;41.48;14.15;98945.75;5074712;28;20581;-48
2022/07/16 10:53:57;;;;;;;2.67;1.20;;;;;;;41.80;13.88;98937.28;5056786;28;20288;-49
2022/07/16 10:56:34;;;;;;;9.55;1.80;;;;;;;41.93;13.85;98945.84;5056622;28;20089;-49
2022/07/16 10:59:02;;;;;;;5.97;1.73;;;;;;;41.90;13.68;98936.41;5074591;28;20020;-47
2022/07/16 11:01:32;;;;;;;3.45;1.70;;;;;;;41.49;14.34;98936.28;5074902;28;20425;-48
2022/07/16 11:03:57;;;;;;;10.55;2.38;;;;;;;41.65;14.52;98938.56;5074549;28;20039;-48
2022/07/16 11:06:24;;;;;;;8.65;1.98;;;;;;;41.86;14.09;98935.66;5074552;28;20020;-48
2022/07/16 11:08:56;;;;;;;8.43;1.90;;;;;;;42.14;13.57;98933.88;5056523;28;20392;-49
2022/07/16 11:11:22;;;;;;;12.83;2.13;;;;;;;42.18;13.70;98936.59;5056502;28;20051;-50
2022/07/16 11:13:52;;;;;;;18.33;1.90;;;;;;;42.23;13.55;98930.63;5074383;28;20775;-49
2022/07/16 11:16:18;;;;;;;17.00;2.28;;;;;;;42.21;13.70;98933.03;5074356;28;20062;-49
2022/07/16 11:18:44;;;;;;;15.30;2.75;;;;;;;41.84;14.04;98923.47;5073521;28;20049;-49
2022/07/16 11:21:10;;;;;;;39.20;3.95;;;;;;;41.75;14.08;98934.94;5055647;28;20038;-47
2022/07/16 11:23:49;;;;;;;12.05;1.85;;;;;;;41.70;14.13;98932.63;5074182;28;20028;-48
2022/07/16 11:26:16;;;;;;;16.35;1.95;;;;;;;41.46;14.34;98940.63;5074206;28;20021;-48
2022/07/16 11:29:03;;;;;;;16.52;2.63;;;;;;;41.41;14.34;98932.78;5074077;28;20119;-48
2022/07/16 11:31:34;;;;;;;11.27;1.65;;;;;;;41.46;13.89;98926.84;5074010;28;20016;-49
2022/07/16 11:34:05;;;;;;;16.27;2.80;;;;;;;41.64;14.21;98928.75;5074140;28;20032;-48
2022/07/16 11:36:37;;;;;;;10.32;2.40;;;;;;;41.79;13.96;98926.66;5073931;28;20028;-48
2022/07/16 11:39:06;;;;;;;34.22;3.42;;;;;;;41.75;13.87;98925.91;5055989;28;20047;-48
2022/07/16 11:41:33;;;;;;;16.63;2.78;;;;;;;41.54;14.17;98929.56;5073877;28;20025;-48